sensor_id;sensor_type;location;lat;lon;timestamp;temperature;humidity
19330;DHT22;9799;48.214;16.388;2023-03-13T00:00:52;9.20;99.90
19330;DHT22;9799;48.214;16.388;2023-03-13T00:04:14;9.20;99.90
19330;DHT22;9799;48.214;16.388;2023-03-13T00:07:35;9.30;99.90
19330;DHT22;9799;48.214;16.388;2023-03-13T00:10:56;9.30;99.90
19330;DHT22;9799;48.214;16.388;2023-03-13T00:14:17;9.30;99.90
19330;DHT22;9799;48.214;16.388;2023-03-13T00:17:40;9.30;99.90
19330;DHT22;9799;48.214;16.388;2023-03-13T00:21:03;9.30;99.90
19330;DHT22;9799;48.214;16.388;2023-03-13T00:24:24;9.30;99.90
19330;DHT22;9799;48.214;16.388;2023-03-13T00:27:46;9.30;99.90
19330;DHT22;9799;48.214;16.388;2023-03-13T00:31:09;9.30;99.90
19330;DHT22;9799;48.214;16.388;2023-03-13T00:34:32;9.30;99.90
19330;DHT22;9799;48.214;16.388;2023-03-13T00:37:53;9.30;99.90
19330;DHT22;9799;48.214;16.388;2023-03-13T00:41:16;9.20;99.90
19330;DHT22;9799;48.214;16.388;2023-03-13T00:44:37;9.20;99.90
19330;DHT22;9799;48.214;16.388;2023-03-13T00:47:58;9.20;99.90
19330;DHT22;9799;48.214;16.388;2023-03-13T00:51:22;9.20;99.90
19330;DHT22;9799;48.214;16.388;2023-03-13T00:54:45;9.20;99.90
19330;DHT22;9799;48.214;16.388;2023-03-13T00:58:06;9.20;99.90
19330;DHT22;9799;48.214;16.388;2023-03-13T01:01:29;9.20;99.90
19330;DHT22;9799;48.214;16.388;2023-03-13T01:04:51;9.20;99.90
19330;DHT22;9799;48.214;16.388;2023-03-13T01:08:14;9.20;99.90
19330;DHT22;9799;48.214;16.388;2023-03-13T01:11:37;9.20;99.90
19330;DHT22;9799;48.214;16.388;2023-03-13T01:14:58;9.20;99.90
19330;DHT22;9799;48.214;16.388;2023-03-13T01:18:19;9.20;99.90
19330;DHT22;9799;48.214;16.388;2023-03-13T01:21:42;9.10;99.90
19330;DHT22;9799;48.214;16.388;2023-03-13T01:25:06;9.20;99.90
19330;DHT22;9799;48.214;16.388;2023-03-13T01:28:27;9.10;99.90
19330;DHT22;9799;48.214;16.388;2023-03-13T01:31:48;9.10;99.90
19330;DHT22;9799;48.214;16.388;2023-03-13T01:35:10;9.10;99.90
19330;DHT22;9799;48.214;16.388;2023-03-13T01:38:31;9.10;99.90
19330;DHT22;9799;48.214;16.388;2023-03-13T01:41:54;9.10;99.90
19330;DHT22;9799;48.214;16.388;2023-03-13T01:49:30;9.00;99.90
19330;DHT22;9799;48.214;16.388;2023-03-13T01:52:52;9.00;99.90
19330;DHT22;9799;48.214;16.388;2023-03-13T01:56:19;8.90;99.90
19330;DHT22;9799;48.214;16.388;2023-03-13T01:59:46;8.90;99.90
19330;DHT22;9799;48.214;16.388;2023-03-13T02:03:11;8.70;99.90
19330;DHT22;9799;48.214;16.388;2023-03-13T02:06:35;8.70;99.90
19330;DHT22;9799;48.214;16.388;2023-03-13T02:09:58;8.70;99.90
19330;DHT22;9799;48.214;16.388;2023-03-13T02:13:20;8.70;99.90
19330;DHT22;9799;48.214;16.388;2023-03-13T02:16:43;8.70;99.90
19330;DHT22;9799;48.214;16.388;2023-03-13T02:20:09;8.70;99.90
19330;DHT22;9799;48.214;16.388;2023-03-13T02:23:34;8.60;99.90
19330;DHT22;9799;48.214;16.388;2023-03-13T02:27:00;8.50;99.90
19330;DHT22;9799;48.214;16.388;2023-03-13T02:30:22;8.50;99.90
19330;DHT22;9799;48.214;16.388;2023-03-13T02:33:43;8.60;99.90
19330;DHT22;9799;48.214;16.388;2023-03-13T02:37:05;8.70;99.90
19330;DHT22;9799;48.214;16.388;2023-03-13T02:40:31;8.60;99.90
19330;DHT22;9799;48.214;16.388;2023-03-13T02:43:54;8.60;99.90
19330;DHT22;9799;48.214;16.388;2023-03-13T02:47:18;8.60;99.90
19330;DHT22;9799;48.214;16.388;2023-03-13T02:50:39;8.60;99.90
19330;DHT22;9799;48.214;16.388;2023-03-13T02:54:02;8.50;99.90
19330;DHT22;9799;48.214;16.388;2023-03-13T02:57:26;8.60;99.90
19330;DHT22;9799;48.214;16.388;2023-03-13T03:00:49;8.60;99.90
19330;DHT22;9799;48.214;16.388;2023-03-13T03:04:11;8.60;99.90
19330;DHT22;9799;48.214;16.388;2023-03-13T03:07:32;8.60;99.90
19330;DHT22;9799;48.214;16.388;2023-03-13T03:10:53;8.60;99.90
19330;DHT22;9799;48.214;16.388;2023-03-13T03:14:14;8.60;99.90
19330;DHT22;9799;48.214;16.388;2023-03-13T03:17:37;8.70;99.90
19330;DHT22;9799;48.214;16.388;2023-03-13T03:20:59;8.70;99.90
19330;DHT22;9799;48.214;16.388;2023-03-13T03:24:20;8.80;99.90
19330;DHT22;9799;48.214;16.388;2023-03-13T03:27:41;8.70;99.90
19330;DHT22;9799;48.214;16.388;2023-03-13T03:31:03;8.80;99.90
19330;DHT22;9799;48.214;16.388;2023-03-13T03:34:26;8.80;99.90
19330;DHT22;9799;48.214;16.388;2023-03-13T03:37:47;8.70;99.90
19330;DHT22;9799;48.214;16.388;2023-03-13T03:41:10;8.70;99.90
19330;DHT22;9799;48.214;16.388;2023-03-13T03:44:31;8.70;99.90
19330;DHT22;9799;48.214;16.388;2023-03-13T03:47:52;8.70;99.90
19330;DHT22;9799;48.214;16.388;2023-03-13T03:51:15;8.80;99.90
19330;DHT22;9799;48.214;16.388;2023-03-13T03:54:36;8.70;99.90
19330;DHT22;9799;48.214;16.388;2023-03-13T03:57:57;8.70;99.90
19330;DHT22;9799;48.214;16.388;2023-03-13T04:01:19;8.70;99.90
19330;DHT22;9799;48.214;16.388;2023-03-13T04:04:40;8.80;99.90
19330;DHT22;9799;48.214;16.388;2023-03-13T04:08:02;8.80;99.90
19330;DHT22;9799;48.214;16.388;2023-03-13T04:11:24;8.80;99.90
19330;DHT22;9799;48.214;16.388;2023-03-13T04:14:45;8.80;99.90
19330;DHT22;9799;48.214;16.388;2023-03-13T04:18:06;8.70;99.90
19330;DHT22;9799;48.214;16.388;2023-03-13T04:21:28;8.60;99.90
19330;DHT22;9799;48.214;16.388;2023-03-13T04:24:50;8.80;99.90
19330;DHT22;9799;48.214;16.388;2023-03-13T04:28:11;8.80;99.90
19330;DHT22;9799;48.214;16.388;2023-03-13T04:31:33;8.80;99.90
19330;DHT22;9799;48.214;16.388;2023-03-13T04:34:54;8.90;99.90
19330;DHT22;9799;48.214;16.388;2023-03-13T04:38:15;9.00;99.90
19330;DHT22;9799;48.214;16.388;2023-03-13T04:41:38;9.10;99.90
19330;DHT22;9799;48.214;16.388;2023-03-13T04:44:59;9.10;99.90
19330;DHT22;9799;48.214;16.388;2023-03-13T04:48:20;9.10;99.90
19330;DHT22;9799;48.214;16.388;2023-03-13T04:51:42;9.10;99.90
19330;DHT22;9799;48.214;16.388;2023-03-13T04:55:05;9.20;99.90
19330;DHT22;9799;48.214;16.388;2023-03-13T04:58:27;9.40;99.90
19330;DHT22;9799;48.214;16.388;2023-03-13T05:01:48;9.40;99.90
19330;DHT22;9799;48.214;16.388;2023-03-13T05:05:10;9.50;99.90
19330;DHT22;9799;48.214;16.388;2023-03-13T05:08:31;9.50;99.90
19330;DHT22;9799;48.214;16.388;2023-03-13T05:11:52;9.50;99.90
19330;DHT22;9799;48.214;16.388;2023-03-13T05:15:15;9.50;99.90
19330;DHT22;9799;48.214;16.388;2023-03-13T05:18:36;9.60;99.90
19330;DHT22;9799;48.214;16.388;2023-03-13T05:21:57;9.70;99.90
19330;DHT22;9799;48.214;16.388;2023-03-13T05:25:19;9.70;99.90
19330;DHT22;9799;48.214;16.388;2023-03-13T05:28:40;9.60;99.90
19330;DHT22;9799;48.214;16.388;2023-03-13T05:32:03;9.60;99.90
19330;DHT22;9799;48.214;16.388;2023-03-13T05:35:24;9.40;99.90
19330;DHT22;9799;48.214;16.388;2023-03-13T05:38:45;9.30;99.90
19330;DHT22;9799;48.214;16.388;2023-03-13T05:42:06;9.30;99.90
19330;DHT22;9799;48.214;16.388;2023-03-13T05:45:28;9.30;99.90
19330;DHT22;9799;48.214;16.388;2023-03-13T05:48:50;9.20;99.90
19330;DHT22;9799;48.214;16.388;2023-03-13T05:52:12;9.30;99.90
19330;DHT22;9799;48.214;16.388;2023-03-13T05:55:33;9.30;99.90
19330;DHT22;9799;48.214;16.388;2023-03-13T05:58:55;9.30;99.90
19330;DHT22;9799;48.214;16.388;2023-03-13T06:02:16;9.20;99.90
19330;DHT22;9799;48.214;16.388;2023-03-13T06:05:38;9.30;99.90
19330;DHT22;9799;48.214;16.388;2023-03-13T06:08:59;9.40;99.90
19330;DHT22;9799;48.214;16.388;2023-03-13T06:12:21;9.40;99.90
19330;DHT22;9799;48.214;16.388;2023-03-13T06:15:42;9.50;99.90
19330;DHT22;9799;48.214;16.388;2023-03-13T06:19:03;9.70;99.90
19330;DHT22;9799;48.214;16.388;2023-03-13T06:22:26;9.70;99.90
19330;DHT22;9799;48.214;16.388;2023-03-13T06:25:47;9.70;99.90
19330;DHT22;9799;48.214;16.388;2023-03-13T06:29:08;9.70;99.90
19330;DHT22;9799;48.214;16.388;2023-03-13T06:32:30;9.60;99.90
19330;DHT22;9799;48.214;16.388;2023-03-13T06:35:51;9.60;99.90
19330;DHT22;9799;48.214;16.388;2023-03-13T06:39:14;9.70;99.90
19330;DHT22;9799;48.214;16.388;2023-03-13T06:42:35;9.80;99.90
19330;DHT22;9799;48.214;16.388;2023-03-13T06:46:01;9.90;99.90
19330;DHT22;9799;48.214;16.388;2023-03-13T06:49:22;9.90;99.90
19330;DHT22;9799;48.214;16.388;2023-03-13T06:52:44;9.90;99.90
19330;DHT22;9799;48.214;16.388;2023-03-13T06:56:08;9.90;99.90
19330;DHT22;9799;48.214;16.388;2023-03-13T06:59:30;10.00;99.90
19330;DHT22;9799;48.214;16.388;2023-03-13T07:02:51;10.00;99.90
19330;DHT22;9799;48.214;16.388;2023-03-13T07:06:13;10.00;99.90
19330;DHT22;9799;48.214;16.388;2023-03-13T07:09:34;10.00;99.90
19330;DHT22;9799;48.214;16.388;2023-03-13T07:12:57;10.10;99.90
19330;DHT22;9799;48.214;16.388;2023-03-13T07:16:18;10.20;99.90
19330;DHT22;9799;48.214;16.388;2023-03-13T07:19:39;10.30;99.90
19330;DHT22;9799;48.214;16.388;2023-03-13T07:23:00;10.40;99.90
19330;DHT22;9799;48.214;16.388;2023-03-13T07:26:21;10.50;99.90
19330;DHT22;9799;48.214;16.388;2023-03-13T07:29:44;10.50;99.90
19330;DHT22;9799;48.214;16.388;2023-03-13T07:33:05;10.40;99.90
19330;DHT22;9799;48.214;16.388;2023-03-13T07:36:26;10.50;99.90
19330;DHT22;9799;48.214;16.388;2023-03-13T07:39:48;10.50;99.90
19330;DHT22;9799;48.214;16.388;2023-03-13T07:43:09;10.70;99.90
19330;DHT22;9799;48.214;16.388;2023-03-13T07:46:32;10.90;99.90
19330;DHT22;9799;48.214;16.388;2023-03-13T07:49:53;10.90;99.90
19330;DHT22;9799;48.214;16.388;2023-03-13T07:53:15;10.90;99.90
19330;DHT22;9799;48.214;16.388;2023-03-13T07:56:39;10.90;99.90
19330;DHT22;9799;48.214;16.388;2023-03-13T08:00:01;11.00;99.90
19330;DHT22;9799;48.214;16.388;2023-03-13T08:03:24;11.00;99.90
19330;DHT22;9799;48.214;16.388;2023-03-13T08:06:45;11.00;99.90
19330;DHT22;9799;48.214;16.388;2023-03-13T08:10:07;11.00;99.90
19330;DHT22;9799;48.214;16.388;2023-03-13T08:13:30;11.30;99.90
19330;DHT22;9799;48.214;16.388;2023-03-13T08:16:51;11.50;99.90
19330;DHT22;9799;48.214;16.388;2023-03-13T08:20:14;11.60;99.90
19330;DHT22;9799;48.214;16.388;2023-03-13T08:23:36;11.70;99.90
19330;DHT22;9799;48.214;16.388;2023-03-13T08:26:58;11.80;99.90
19330;DHT22;9799;48.214;16.388;2023-03-13T08:30:19;11.70;99.90
19330;DHT22;9799;48.214;16.388;2023-03-13T08:33:42;11.70;99.90
19330;DHT22;9799;48.214;16.388;2023-03-13T08:37:05;11.80;99.90
19330;DHT22;9799;48.214;16.388;2023-03-13T08:40:26;11.70;99.90
19330;DHT22;9799;48.214;16.388;2023-03-13T08:43:48;11.70;99.90
19330;DHT22;9799;48.214;16.388;2023-03-13T08:47:09;11.60;99.90
19330;DHT22;9799;48.214;16.388;2023-03-13T08:50:30;11.50;99.90
19330;DHT22;9799;48.214;16.388;2023-03-13T08:53:54;11.50;99.90
19330;DHT22;9799;48.214;16.388;2023-03-13T08:57:15;11.60;99.90
19330;DHT22;9799;48.214;16.388;2023-03-13T09:00:37;11.80;99.90
19330;DHT22;9799;48.214;16.388;2023-03-13T09:03:58;11.80;99.90
19330;DHT22;9799;48.214;16.388;2023-03-13T09:07:20;11.80;99.90
19330;DHT22;9799;48.214;16.388;2023-03-13T09:10:42;11.90;99.90
19330;DHT22;9799;48.214;16.388;2023-03-13T09:14:05;11.90;99.90
19330;DHT22;9799;48.214;16.388;2023-03-13T09:17:26;12.00;99.90
19330;DHT22;9799;48.214;16.388;2023-03-13T09:20:48;12.20;99.90
19330;DHT22;9799;48.214;16.388;2023-03-13T09:24:09;12.20;99.90
19330;DHT22;9799;48.214;16.388;2023-03-13T09:27:32;12.20;99.90
19330;DHT22;9799;48.214;16.388;2023-03-13T09:30:53;12.20;99.90
19330;DHT22;9799;48.214;16.388;2023-03-13T09:34:15;12.10;99.90
19330;DHT22;9799;48.214;16.388;2023-03-13T09:37:36;12.10;99.90
19330;DHT22;9799;48.214;16.388;2023-03-13T09:41:03;12.10;99.90
19330;DHT22;9799;48.214;16.388;2023-03-13T09:44:29;12.00;99.90
19330;DHT22;9799;48.214;16.388;2023-03-13T09:47:56;12.00;99.90
19330;DHT22;9799;48.214;16.388;2023-03-13T09:51:24;12.20;99.90
19330;DHT22;9799;48.214;16.388;2023-03-13T09:54:48;12.30;99.90
19330;DHT22;9799;48.214;16.388;2023-03-13T09:58:13;12.50;99.90
19330;DHT22;9799;48.214;16.388;2023-03-13T10:01:38;12.40;99.30
19330;DHT22;9799;48.214;16.388;2023-03-13T10:05:09;12.40;99.00
19330;DHT22;9799;48.214;16.388;2023-03-13T10:08:33;12.20;99.10
19330;DHT22;9799;48.214;16.388;2023-03-13T10:12:03;12.20;99.10
19330;DHT22;9799;48.214;16.388;2023-03-13T10:15:33;12.30;99.60
19330;DHT22;9799;48.214;16.388;2023-03-13T10:18:58;12.40;99.10
19330;DHT22;9799;48.214;16.388;2023-03-13T10:22:29;12.50;98.70
19330;DHT22;9799;48.214;16.388;2023-03-13T10:25:51;12.50;99.00
19330;DHT22;9799;48.214;16.388;2023-03-13T10:29:20;12.60;98.70
19330;DHT22;9799;48.214;16.388;2023-03-13T10:32:41;12.50;98.80
19330;DHT22;9799;48.214;16.388;2023-03-13T10:36:09;12.60;99.00
19330;DHT22;9799;48.214;16.388;2023-03-13T10:39:31;12.70;98.00
19330;DHT22;9799;48.214;16.388;2023-03-13T10:42:59;12.80;97.90
19330;DHT22;9799;48.214;16.388;2023-03-13T10:46:26;12.80;99.20
19330;DHT22;9799;48.214;16.388;2023-03-13T10:49:49;12.70;97.60
19330;DHT22;9799;48.214;16.388;2023-03-13T10:53:23;12.80;97.50
19330;DHT22;9799;48.214;16.388;2023-03-13T10:56:44;12.90;97.10
19330;DHT22;9799;48.214;16.388;2023-03-13T11:00:23;12.90;97.50
19330;DHT22;9799;48.214;16.388;2023-03-13T11:03:49;13.10;97.30
19330;DHT22;9799;48.214;16.388;2023-03-13T11:07:15;13.00;96.60
19330;DHT22;9799;48.214;16.388;2023-03-13T11:10:51;13.00;96.80
19330;DHT22;9799;48.214;16.388;2023-03-13T11:14:15;13.10;96.90
19330;DHT22;9799;48.214;16.388;2023-03-13T11:17:39;13.20;96.80
19330;DHT22;9799;48.214;16.388;2023-03-13T11:21:00;13.20;97.20
19330;DHT22;9799;48.214;16.388;2023-03-13T11:24:34;13.30;96.50
19330;DHT22;9799;48.214;16.388;2023-03-13T11:28:19;13.30;95.80
19330;DHT22;9799;48.214;16.388;2023-03-13T11:31:46;13.30;96.60
19330;DHT22;9799;48.214;16.388;2023-03-13T11:35:18;13.40;96.00
19330;DHT22;9799;48.214;16.388;2023-03-13T11:38:41;13.50;96.10
19330;DHT22;9799;48.214;16.388;2023-03-13T11:42:11;13.60;95.50
19330;DHT22;9799;48.214;16.388;2023-03-13T11:46:00;13.60;95.50
19330;DHT22;9799;48.214;16.388;2023-03-13T11:49:43;13.70;95.00
19330;DHT22;9799;48.214;16.388;2023-03-13T11:53:24;13.70;94.90
19330;DHT22;9799;48.214;16.388;2023-03-13T11:56:51;13.60;94.50
19330;DHT22;9799;48.214;16.388;2023-03-13T12:00:21;13.70;94.00
19330;DHT22;9799;48.214;16.388;2023-03-13T12:03:54;13.70;93.40
19330;DHT22;9799;48.214;16.388;2023-03-13T12:07:20;13.80;93.40
19330;DHT22;9799;48.214;16.388;2023-03-13T12:10:47;13.80;93.10
19330;DHT22;9799;48.214;16.388;2023-03-13T12:14:17;13.80;93.00
19330;DHT22;9799;48.214;16.388;2023-03-13T12:17:43;13.80;92.80
19330;DHT22;9799;48.214;16.388;2023-03-13T12:21:14;13.90;92.50
19330;DHT22;9799;48.214;16.388;2023-03-13T12:24:40;13.90;92.60
19330;DHT22;9799;48.214;16.388;2023-03-13T12:28:18;14.00;92.70
19330;DHT22;9799;48.214;16.388;2023-03-13T12:31:46;14.10;92.70
19330;DHT22;9799;48.214;16.388;2023-03-13T12:35:18;14.20;91.90
19330;DHT22;9799;48.214;16.388;2023-03-13T12:38:48;14.20;91.50
19330;DHT22;9799;48.214;16.388;2023-03-13T12:42:19;14.20;92.80
19330;DHT22;9799;48.214;16.388;2023-03-13T12:46:00;14.30;92.50
19330;DHT22;9799;48.214;16.388;2023-03-13T12:49:40;14.40;92.10
19330;DHT22;9799;48.214;16.388;2023-03-13T12:53:23;14.30;92.10
19330;DHT22;9799;48.214;16.388;2023-03-13T12:57:05;14.30;92.20
19330;DHT22;9799;48.214;16.388;2023-03-13T13:00:30;14.20;92.70
19330;DHT22;9799;48.214;16.388;2023-03-13T13:03:57;14.20;92.50
19330;DHT22;9799;48.214;16.388;2023-03-13T13:07:22;14.20;92.40
19330;DHT22;9799;48.214;16.388;2023-03-13T13:10:45;14.20;92.10
19330;DHT22;9799;48.214;16.388;2023-03-13T13:18:25;14.20;91.90
19330;DHT22;9799;48.214;16.388;2023-03-13T13:21:46;14.20;92.00
19330;DHT22;9799;48.214;16.388;2023-03-13T13:25:32;14.20;92.30
19330;DHT22;9799;48.214;16.388;2023-03-13T13:28:56;14.10;92.20
19330;DHT22;9799;48.214;16.388;2023-03-13T13:32:40;14.10;92.50
19330;DHT22;9799;48.214;16.388;2023-03-13T13:36:28;14.00;92.30
19330;DHT22;9799;48.214;16.388;2023-03-13T13:39:51;14.10;92.30
19330;DHT22;9799;48.214;16.388;2023-03-13T13:43:20;14.10;92.20
19330;DHT22;9799;48.214;16.388;2023-03-13T13:46:44;14.10;92.10
19330;DHT22;9799;48.214;16.388;2023-03-13T13:50:16;14.10;92.00
19330;DHT22;9799;48.214;16.388;2023-03-13T13:53:44;14.20;91.80
19330;DHT22;9799;48.214;16.388;2023-03-13T13:57:07;14.20;91.60
19330;DHT22;9799;48.214;16.388;2023-03-13T14:00:38;14.20;91.70
19330;DHT22;9799;48.214;16.388;2023-03-13T14:04:11;14.30;91.60
19330;DHT22;9799;48.214;16.388;2023-03-13T14:07:46;14.30;91.50
19330;DHT22;9799;48.214;16.388;2023-03-13T14:11:21;14.40;91.40
19330;DHT22;9799;48.214;16.388;2023-03-13T14:14:43;14.40;91.20
19330;DHT22;9799;48.214;16.388;2023-03-13T14:18:09;14.50;91.50
19330;DHT22;9799;48.214;16.388;2023-03-13T14:21:32;14.50;91.40
19330;DHT22;9799;48.214;16.388;2023-03-13T14:24:57;14.50;91.40
19330;DHT22;9799;48.214;16.388;2023-03-13T14:28:21;14.60;91.50
19330;DHT22;9799;48.214;16.388;2023-03-13T14:31:51;14.60;91.00
19330;DHT22;9799;48.214;16.388;2023-03-13T14:35:14;14.60;90.70
19330;DHT22;9799;48.214;16.388;2023-03-13T14:38:36;14.70;88.60
19330;DHT22;9799;48.214;16.388;2023-03-13T14:42:02;14.50;88.90
19330;DHT22;9799;48.214;16.388;2023-03-13T14:45:28;14.70;87.60
19330;DHT22;9799;48.214;16.388;2023-03-13T14:48:53;14.70;87.60
19330;DHT22;9799;48.214;16.388;2023-03-13T14:52:18;14.70;87.30
19330;DHT22;9799;48.214;16.388;2023-03-13T14:55:40;14.70;87.30
19330;DHT22;9799;48.214;16.388;2023-03-13T14:59:07;14.70;87.50
19330;DHT22;9799;48.214;16.388;2023-03-13T15:02:30;14.70;87.30
19330;DHT22;9799;48.214;16.388;2023-03-13T15:06:13;14.80;87.10
19330;DHT22;9799;48.214;16.388;2023-03-13T15:09:40;14.80;86.70
19330;DHT22;9799;48.214;16.388;2023-03-13T15:13:14;14.80;86.60
19330;DHT22;9799;48.214;16.388;2023-03-13T15:16:35;14.80;86.30
19330;DHT22;9799;48.214;16.388;2023-03-13T15:19:58;14.70;86.50
19330;DHT22;9799;48.214;16.388;2023-03-13T15:23:20;14.80;85.60
19330;DHT22;9799;48.214;16.388;2023-03-13T15:26:41;14.80;85.40
19330;DHT22;9799;48.214;16.388;2023-03-13T15:30:03;14.80;85.40
19330;DHT22;9799;48.214;16.388;2023-03-13T15:33:27;14.80;85.30
19330;DHT22;9799;48.214;16.388;2023-03-13T15:36:50;14.80;85.40
19330;DHT22;9799;48.214;16.388;2023-03-13T15:40:14;14.80;85.30
19330;DHT22;9799;48.214;16.388;2023-03-13T15:43:35;14.70;85.20
19330;DHT22;9799;48.214;16.388;2023-03-13T15:46:57;14.70;85.50
19330;DHT22;9799;48.214;16.388;2023-03-13T15:50:20;14.70;85.00
19330;DHT22;9799;48.214;16.388;2023-03-13T15:53:45;14.70;85.00
19330;DHT22;9799;48.214;16.388;2023-03-13T15:57:08;14.70;85.40
19330;DHT22;9799;48.214;16.388;2023-03-13T16:00:30;14.70;85.30
19330;DHT22;9799;48.214;16.388;2023-03-13T16:03:51;14.60;85.40
19330;DHT22;9799;48.214;16.388;2023-03-13T16:07:15;14.60;85.40
19330;DHT22;9799;48.214;16.388;2023-03-13T16:10:38;14.60;86.00
19330;DHT22;9799;48.214;16.388;2023-03-13T16:14:00;14.60;86.10
19330;DHT22;9799;48.214;16.388;2023-03-13T16:17:21;14.50;85.80
19330;DHT22;9799;48.214;16.388;2023-03-13T16:20:44;14.50;85.70
19330;DHT22;9799;48.214;16.388;2023-03-13T16:24:06;14.50;86.00
19330;DHT22;9799;48.214;16.388;2023-03-13T16:27:28;14.50;86.30
19330;DHT22;9799;48.214;16.388;2023-03-13T16:30:51;14.40;86.50
19330;DHT22;9799;48.214;16.388;2023-03-13T16:34:15;14.40;86.80
19330;DHT22;9799;48.214;16.388;2023-03-13T16:37:36;14.40;86.80
19330;DHT22;9799;48.214;16.388;2023-03-13T16:40:57;14.40;87.20
19330;DHT22;9799;48.214;16.388;2023-03-13T16:44:20;14.40;87.40
19330;DHT22;9799;48.214;16.388;2023-03-13T16:47:43;14.40;87.40
19330;DHT22;9799;48.214;16.388;2023-03-13T16:51:05;14.30;87.80
19330;DHT22;9799;48.214;16.388;2023-03-13T16:54:26;14.30;88.10
19330;DHT22;9799;48.214;16.388;2023-03-13T16:57:48;14.20;88.30
19330;DHT22;9799;48.214;16.388;2023-03-13T17:01:11;14.20;88.20
19330;DHT22;9799;48.214;16.388;2023-03-13T17:04:33;14.20;88.30
19330;DHT22;9799;48.214;16.388;2023-03-13T17:07:55;14.20;88.10
19330;DHT22;9799;48.214;16.388;2023-03-13T17:11:17;14.10;88.30
19330;DHT22;9799;48.214;16.388;2023-03-13T17:14:40;14.10;87.90
19330;DHT22;9799;48.214;16.388;2023-03-13T17:18:03;14.10;88.30
19330;DHT22;9799;48.214;16.388;2023-03-13T17:21:27;14.00;88.40
19330;DHT22;9799;48.214;16.388;2023-03-13T17:24:49;13.90;88.90
19330;DHT22;9799;48.214;16.388;2023-03-13T17:28:12;13.90;89.70
19330;DHT22;9799;48.214;16.388;2023-03-13T17:31:33;13.60;90.20
19330;DHT22;9799;48.214;16.388;2023-03-13T17:35:01;13.60;90.30
19330;DHT22;9799;48.214;16.388;2023-03-13T17:38:23;13.80;89.70
19330;DHT22;9799;48.214;16.388;2023-03-13T17:41:44;13.80;89.80
19330;DHT22;9799;48.214;16.388;2023-03-13T17:45:06;13.70;90.20
19330;DHT22;9799;48.214;16.388;2023-03-13T17:48:28;13.60;90.60
19330;DHT22;9799;48.214;16.388;2023-03-13T17:51:54;13.60;90.90
19330;DHT22;9799;48.214;16.388;2023-03-13T17:55:16;13.60;90.70
19330;DHT22;9799;48.214;16.388;2023-03-13T17:58:41;13.50;90.70
19330;DHT22;9799;48.214;16.388;2023-03-13T18:02:03;13.50;90.70
19330;DHT22;9799;48.214;16.388;2023-03-13T18:05:25;13.50;90.90
19330;DHT22;9799;48.214;16.388;2023-03-13T18:08:53;13.50;90.90
19330;DHT22;9799;48.214;16.388;2023-03-13T18:12:15;13.40;92.00
19330;DHT22;9799;48.214;16.388;2023-03-13T18:15:37;13.40;91.00
19330;DHT22;9799;48.214;16.388;2023-03-13T18:18:58;13.40;91.00
19330;DHT22;9799;48.214;16.388;2023-03-13T18:22:20;13.30;92.50
19330;DHT22;9799;48.214;16.388;2023-03-13T18:25:44;13.30;91.50
19330;DHT22;9799;48.214;16.388;2023-03-13T18:29:12;13.30;91.60
19330;DHT22;9799;48.214;16.388;2023-03-13T18:32:35;13.20;91.60
19330;DHT22;9799;48.214;16.388;2023-03-13T18:35:57;13.10;92.10
19330;DHT22;9799;48.214;16.388;2023-03-13T18:39:20;13.20;91.80
19330;DHT22;9799;48.214;16.388;2023-03-13T18:42:44;13.20;91.60
19330;DHT22;9799;48.214;16.388;2023-03-13T18:46:10;13.20;91.70
19330;DHT22;9799;48.214;16.388;2023-03-13T18:49:34;13.20;91.70
19330;DHT22;9799;48.214;16.388;2023-03-13T18:52:58;13.20;91.80
19330;DHT22;9799;48.214;16.388;2023-03-13T18:56:22;13.10;91.90
19330;DHT22;9799;48.214;16.388;2023-03-13T18:59:46;13.10;91.90
19330;DHT22;9799;48.214;16.388;2023-03-13T19:03:08;13.00;92.40
19330;DHT22;9799;48.214;16.388;2023-03-13T19:06:32;12.80;93.20
19330;DHT22;9799;48.214;16.388;2023-03-13T19:09:55;12.90;92.30
19330;DHT22;9799;48.214;16.388;2023-03-13T19:13:16;12.90;92.30
19330;DHT22;9799;48.214;16.388;2023-03-13T19:16:44;12.90;92.50
19330;DHT22;9799;48.214;16.388;2023-03-13T19:20:13;12.90;92.50
19330;DHT22;9799;48.214;16.388;2023-03-13T19:23:35;12.80;92.40
19330;DHT22;9799;48.214;16.388;2023-03-13T19:26:59;12.80;92.50
19330;DHT22;9799;48.214;16.388;2023-03-13T19:30:23;12.80;93.00
19330;DHT22;9799;48.214;16.388;2023-03-13T19:33:46;12.70;93.60
19330;DHT22;9799;48.214;16.388;2023-03-13T19:37:10;12.70;93.20
19330;DHT22;9799;48.214;16.388;2023-03-13T19:40:33;12.70;92.90
19330;DHT22;9799;48.214;16.388;2023-03-13T19:43:57;12.70;92.90
19330;DHT22;9799;48.214;16.388;2023-03-13T19:47:19;12.60;92.90
19330;DHT22;9799;48.214;16.388;2023-03-13T19:50:44;12.60;93.20
19330;DHT22;9799;48.214;16.388;2023-03-13T19:54:07;12.60;93.40
19330;DHT22;9799;48.214;16.388;2023-03-13T19:57:31;12.50;93.90
19330;DHT22;9799;48.214;16.388;2023-03-13T20:00:53;12.50;93.80
19330;DHT22;9799;48.214;16.388;2023-03-13T20:04:15;12.50;94.10
19330;DHT22;9799;48.214;16.388;2023-03-13T20:07:39;12.40;94.30
19330;DHT22;9799;48.214;16.388;2023-03-13T20:11:01;12.40;94.60
19330;DHT22;9799;48.214;16.388;2023-03-13T20:14:25;12.40;94.90
19330;DHT22;9799;48.214;16.388;2023-03-13T20:17:47;12.30;95.10
19330;DHT22;9799;48.214;16.388;2023-03-13T20:21:09;12.30;95.20
19330;DHT22;9799;48.214;16.388;2023-03-13T20:24:33;12.30;95.30
19330;DHT22;9799;48.214;16.388;2023-03-13T20:27:56;12.30;95.40
19330;DHT22;9799;48.214;16.388;2023-03-13T20:31:20;12.40;95.70
19330;DHT22;9799;48.214;16.388;2023-03-13T20:34:43;12.30;95.70
19330;DHT22;9799;48.214;16.388;2023-03-13T20:38:06;12.20;95.80
19330;DHT22;9799;48.214;16.388;2023-03-13T20:41:33;12.20;96.10
19330;DHT22;9799;48.214;16.388;2023-03-13T20:44:56;12.20;96.40
19330;DHT22;9799;48.214;16.388;2023-03-13T20:48:20;12.20;96.80
19330;DHT22;9799;48.214;16.388;2023-03-13T20:51:44;12.20;96.80
19330;DHT22;9799;48.214;16.388;2023-03-13T20:55:07;12.20;97.20
19330;DHT22;9799;48.214;16.388;2023-03-13T20:58:30;12.20;97.60
19330;DHT22;9799;48.214;16.388;2023-03-13T21:01:53;12.20;97.70
19330;DHT22;9799;48.214;16.388;2023-03-13T21:05:16;12.20;98.10
19330;DHT22;9799;48.214;16.388;2023-03-13T21:08:38;12.10;98.30
19330;DHT22;9799;48.214;16.388;2023-03-13T21:12:00;12.10;98.70
19330;DHT22;9799;48.214;16.388;2023-03-13T21:15:23;12.10;98.90
19330;DHT22;9799;48.214;16.388;2023-03-13T21:18:45;12.10;99.30
19330;DHT22;9799;48.214;16.388;2023-03-13T21:22:07;12.10;99.50
19330;DHT22;9799;48.214;16.388;2023-03-13T21:25:28;12.00;99.70
19330;DHT22;9799;48.214;16.388;2023-03-13T21:28:49;12.00;99.90
19330;DHT22;9799;48.214;16.388;2023-03-13T21:32:13;12.00;99.90
19330;DHT22;9799;48.214;16.388;2023-03-13T21:35:35;11.90;99.90
19330;DHT22;9799;48.214;16.388;2023-03-13T21:38:56;11.90;99.90
19330;DHT22;9799;48.214;16.388;2023-03-13T21:42:17;11.80;99.90